createdAt,value
2019-04-27T00:00:00.030Z,3.43
2019-04-27T00:02:57.445Z,3.47
2019-04-27T00:05:38.966Z,3.73
2019-04-27T00:08:35.209Z,3.90
2019-04-27T00:11:08.813Z,3.73
2019-04-27T00:13:40.569Z,3.80
2019-04-27T00:16:28.434Z,3.80
2019-04-27T00:19:17.776Z,3.30
2019-04-27T00:22:09.795Z,2.93
2019-04-27T00:24:40.394Z,3.50
2019-04-27T00:27:11.004Z,3.13
2019-04-27T00:29:40.297Z,3.10
2019-04-27T00:32:09.811Z,2.80
2019-04-27T00:34:39.240Z,2.67
2019-04-27T00:37:30.392Z,2.70
2019-04-27T00:40:03.482Z,2.40
2019-04-27T00:42:33.672Z,2.87
2019-04-27T00:45:05.443Z,3.00
2019-04-27T00:47:35.132Z,3.27
2019-04-27T00:50:05.167Z,3.03
2019-04-27T00:52:34.823Z,2.90
2019-04-27T00:55:04.706Z,3.73
2019-04-27T00:57:41.429Z,2.97
2019-04-27T01:00:47.598Z,2.80
2019-04-27T01:03:25.275Z,2.43
2019-04-27T01:05:54.596Z,2.30
2019-04-27T01:08:23.970Z,2.60
2019-04-27T01:10:53.769Z,3.03
2019-04-27T01:13:23.154Z,2.23
2019-04-27T01:15:54.036Z,3.00
2019-04-27T01:18:23.465Z,2.37
2019-04-27T01:20:52.830Z,2.80
2019-04-27T01:23:22.137Z,2.53
2019-04-27T01:26:04.924Z,3.20
2019-04-27T01:28:39.522Z,2.60
2019-04-27T01:31:10.942Z,2.93
2019-04-27T01:33:40.243Z,2.33
2019-04-27T01:36:10.758Z,2.70
2019-04-27T01:38:41.003Z,2.53
2019-04-27T01:41:10.512Z,2.17
2019-04-27T01:43:39.848Z,2.50
2019-04-27T01:46:09.211Z,2.10
2019-04-27T01:48:38.793Z,1.93
2019-04-27T01:51:09.314Z,2.23
2019-04-27T01:53:39.078Z,2.73
2019-04-27T01:56:09.333Z,2.37
2019-04-27T01:58:39.889Z,2.17
2019-04-27T02:01:32.110Z,2.20
2019-04-27T02:04:19.412Z,2.37
2019-04-27T02:06:51.337Z,2.03
2019-04-27T02:09:22.254Z,2.20
2019-04-27T02:11:51.759Z,2.40
2019-04-27T02:14:21.147Z,2.33
2019-04-27T02:16:50.463Z,2.13
2019-04-27T02:19:19.780Z,1.93
2019-04-27T02:21:51.310Z,2.50
2019-04-27T02:24:20.227Z,2.47
2019-04-27T02:26:49.774Z,2.27
2019-04-27T02:29:29.355Z,2.50
2019-04-27T02:32:13.916Z,2.40
2019-04-27T02:34:51.787Z,2.80
2019-04-27T02:37:21.120Z,2.67
2019-04-27T02:39:50.458Z,2.57
2019-04-27T02:42:20.742Z,2.90
2019-04-27T02:44:50.097Z,2.40
2019-04-27T02:47:20.977Z,2.50
2019-04-27T02:49:51.013Z,2.77
2019-04-27T02:52:33.877Z,2.73
2019-04-27T02:55:03.988Z,2.80
2019-04-27T02:57:33.319Z,2.73
2019-04-27T03:00:02.635Z,3.10
2019-04-27T03:02:42.336Z,2.50
2019-04-27T03:05:20.240Z,2.97
2019-04-27T03:07:50.370Z,2.63
2019-04-27T03:10:20.051Z,2.93
2019-04-27T03:12:54.973Z,3.33
2019-04-27T03:15:34.333Z,2.90
2019-04-27T03:18:10.017Z,3.17
2019-04-27T03:20:52.608Z,3.00
2019-04-27T03:23:21.962Z,2.97
2019-04-27T03:26:01.048Z,2.93
2019-04-27T03:28:30.334Z,2.80
2019-04-27T03:31:02.502Z,3.40
2019-04-27T03:33:32.714Z,3.40
2019-04-27T03:36:03.049Z,3.33
2019-04-27T03:38:32.560Z,3.40
2019-04-27T03:41:02.523Z,3.90
2019-04-27T03:43:31.851Z,3.80
2019-04-27T03:46:01.192Z,3.07
2019-04-27T03:48:30.517Z,3.70
2019-04-27T03:51:33.908Z,3.80
2019-04-27T03:54:31.131Z,3.97
2019-04-27T03:57:15.821Z,3.60
2019-04-27T04:00:09.898Z,3.60
2019-04-27T04:02:40.498Z,3.10
2019-04-27T04:05:09.841Z,3.40
2019-04-27T04:07:40.345Z,3.13
2019-04-27T04:10:11.031Z,2.97
2019-04-27T04:13:10.738Z,3.30
2019-04-27T04:16:00.183Z,2.43
2019-04-27T04:18:31.763Z,3.40
2019-04-27T04:21:01.307Z,2.37
2019-04-27T04:23:30.610Z,2.87
2019-04-27T04:25:59.945Z,2.63
2019-04-27T04:28:30.054Z,2.80
2019-04-27T04:31:00.525Z,2.40
2019-04-27T04:33:30.470Z,2.50
2019-04-27T04:36:00.317Z,2.90
2019-04-27T04:38:31.081Z,2.50
2019-04-27T04:41:04.226Z,2.30
2019-04-27T04:43:55.300Z,2.23
2019-04-27T04:46:52.357Z,2.17
2019-04-27T04:49:21.686Z,2.10
2019-04-27T04:51:51.036Z,1.90
2019-04-27T04:54:24.211Z,1.80
2019-04-27T04:56:51.403Z,1.60
2019-04-27T04:59:20.703Z,2.13
2019-04-27T05:01:50.168Z,1.80
2019-04-27T05:04:19.540Z,1.77
2019-04-27T05:06:50.679Z,1.80
2019-04-27T05:09:19.938Z,1.80
2019-04-27T05:11:49.231Z,1.90
2019-04-27T05:14:19.946Z,1.80
2019-04-27T05:16:49.690Z,1.73
2019-04-27T05:19:19.024Z,1.97
2019-04-27T05:21:49.143Z,1.60
2019-04-27T05:24:19.228Z,2.10
2019-04-27T05:26:48.823Z,2.13
2019-04-27T05:29:19.170Z,2.43
2019-04-27T05:31:49.097Z,2.17
2019-04-27T05:34:19.710Z,1.80
2019-04-27T05:36:52.482Z,2.07
2019-04-27T05:39:24.858Z,1.80
2019-04-27T05:41:51.252Z,2.50
2019-04-27T05:44:39.674Z,2.43
2019-04-27T05:47:36.017Z,2.13
2019-04-27T05:50:20.145Z,2.53
2019-04-27T05:52:49.525Z,2.60
2019-04-27T05:55:19.213Z,2.43
2019-04-27T05:57:49.119Z,2.33
2019-04-27T06:00:20.325Z,2.40
2019-04-27T06:02:49.938Z,2.63
2019-04-27T06:05:19.308Z,2.00
2019-04-27T06:07:48.924Z,2.67
2019-04-27T06:10:19.826Z,2.30
2019-04-27T06:12:49.287Z,3.23
2019-04-27T06:15:19.826Z,2.80
2019-04-27T06:17:49.312Z,3.20
2019-04-27T06:20:18.948Z,3.57
2019-04-27T06:22:48.895Z,3.13
2019-04-27T06:25:21.620Z,3.40
2019-04-27T06:27:49.681Z,3.80
2019-04-27T06:30:19.349Z,3.43
2019-04-27T06:32:49.515Z,3.67
2019-04-27T06:35:18.985Z,4.30
2019-04-27T06:37:49.296Z,3.60
2019-04-27T06:40:18.838Z,3.07
2019-04-27T06:42:48.686Z,3.40
2019-04-27T06:45:19.686Z,3.80
2019-04-27T06:47:51.158Z,3.93
2019-04-27T06:50:20.218Z,4.23
2019-04-27T06:52:49.741Z,4.00
2019-04-27T06:55:19.064Z,4.20
2019-04-27T06:57:49.087Z,4.00
2019-04-27T07:00:18.976Z,4.03
2019-04-27T07:02:49.299Z,3.73
2019-04-27T07:05:20.333Z,3.87
2019-04-27T07:07:49.885Z,4.40
2019-04-27T07:10:19.316Z,4.37
2019-04-27T07:12:49.269Z,4.23
2019-04-27T07:15:20.423Z,4.33
2019-04-27T07:17:49.841Z,3.83
2019-04-27T07:20:19.233Z,4.40
2019-04-27T07:22:49.636Z,4.20
2019-04-27T07:25:19.339Z,4.27
2019-04-27T07:27:49.465Z,4.53
2019-04-27T07:30:19.239Z,4.27
2019-04-27T07:32:48.903Z,4.20
2019-04-27T07:35:19.652Z,4.30
2019-04-27T07:37:49.179Z,4.63
2019-04-27T07:40:18.848Z,5.13
2019-04-27T07:42:50.999Z,5.00
2019-04-27T07:45:33.564Z,4.97
2019-04-27T07:48:03.012Z,4.80
2019-04-27T07:50:32.361Z,5.33
2019-04-27T07:53:01.834Z,4.90
2019-04-27T07:55:31.257Z,4.47
2019-04-27T07:58:00.603Z,4.73
2019-04-27T08:00:29.956Z,5.27
2019-04-27T08:03:00.706Z,4.60
2019-04-27T08:05:30.119Z,4.70
2019-04-27T08:08:00.190Z,4.87
2019-04-27T08:10:29.680Z,5.50
2019-04-27T08:12:59.703Z,5.47
2019-04-27T08:15:29.639Z,5.03
2019-04-27T08:17:59.363Z,5.23
2019-04-27T08:20:31.796Z,5.97
2019-04-27T08:23:01.411Z,5.60
2019-04-27T08:25:31.216Z,6.23
2019-04-27T08:28:10.467Z,6.70
2019-04-27T08:31:00.439Z,6.50
2019-04-27T08:33:29.875Z,7.70
2019-04-27T08:35:59.281Z,7.60
2019-04-27T08:38:29.019Z,7.17
2019-04-27T08:40:59.241Z,7.30
2019-04-27T08:43:34.192Z,7.40
2019-04-27T08:46:03.552Z,7.80
2019-04-27T08:48:36.878Z,7.90
2019-04-27T08:51:03.932Z,9.40
2019-04-27T08:53:33.314Z,9.50
2019-04-27T08:56:02.655Z,9.27
2019-04-27T08:58:32.040Z,10.30
2019-04-27T09:01:01.423Z,10.17
2019-04-27T09:03:30.774Z,9.40
2019-04-27T09:06:04.425Z,8.10
2019-04-27T09:08:49.618Z,9.23
2019-04-27T09:11:34.468Z,9.93
2019-04-27T09:14:34.728Z,8.67
2019-04-27T09:17:19.348Z,8.60
2019-04-27T09:20:04.811Z,7.80
2019-04-27T09:22:34.154Z,7.17
2019-04-27T09:25:03.510Z,8.10
2019-04-27T09:27:32.860Z,9.03
2019-04-27T09:30:02.192Z,7.77
2019-04-27T09:32:31.547Z,9.53
2019-04-27T09:35:00.925Z,9.03
2019-04-27T09:37:30.260Z,8.40
2019-04-27T09:39:59.580Z,9.50
2019-04-27T09:42:28.947Z,9.77
2019-04-27T09:44:58.238Z,4.77
2019-04-27T09:47:27.609Z,2.80
2019-04-27T09:49:57.018Z,2.23
2019-04-27T09:52:28.290Z,2.67
2019-04-27T09:54:57.430Z,2.40
2019-04-27T09:57:26.772Z,1.93
2019-04-27T09:59:56.518Z,2.73
2019-04-27T10:02:26.999Z,3.17
2019-04-27T10:04:56.619Z,2.57
2019-04-27T10:07:26.807Z,2.67
2019-04-27T10:09:56.463Z,2.80
2019-04-27T10:12:26.165Z,2.50
2019-04-27T10:14:56.070Z,2.80
2019-04-27T10:17:26.000Z,2.97
2019-04-27T10:19:56.971Z,3.60
2019-04-27T10:22:39.925Z,2.67
2019-04-27T10:24:57.570Z,4.00
2019-04-27T10:27:26.916Z,6.13
2019-04-27T10:29:56.667Z,3.53
2019-04-27T10:32:27.438Z,3.03
2019-04-27T10:34:56.788Z,2.57
2019-04-27T10:37:26.729Z,2.00
2019-04-27T10:39:56.123Z,3.40
2019-04-27T10:42:27.165Z,2.97
2019-04-27T10:44:56.631Z,2.30
2019-04-27T10:47:26.117Z,1.97
2019-04-27T10:49:56.695Z,2.10
2019-04-27T10:52:26.319Z,2.20
2019-04-27T10:54:57.411Z,2.20
2019-04-27T10:57:27.201Z,1.83
2019-04-27T10:59:56.598Z,1.90
2019-04-27T11:02:25.912Z,1.93
2019-04-27T11:05:04.043Z,2.67
2019-04-27T11:07:36.333Z,1.90
2019-04-27T11:10:07.651Z,2.43
2019-04-27T11:12:37.251Z,2.80
2019-04-27T11:15:07.850Z,1.83
2019-04-27T11:17:37.259Z,2.50
2019-04-27T11:20:07.767Z,2.10
2019-04-27T11:22:37.204Z,1.83
2019-04-27T11:25:07.085Z,2.00
2019-04-27T11:27:36.458Z,2.20
2019-04-27T11:30:06.775Z,2.70
2019-04-27T11:32:36.415Z,2.20
2019-04-27T11:35:23.129Z,2.30
2019-04-27T11:37:53.152Z,2.70
2019-04-27T11:40:23.226Z,2.50
2019-04-27T11:42:52.604Z,2.40
2019-04-27T11:45:22.024Z,1.97
2019-04-27T11:47:51.353Z,2.70
2019-04-27T11:50:20.774Z,2.40
2019-04-27T11:52:50.155Z,2.17
2019-04-27T11:55:19.827Z,2.23
2019-04-27T11:57:49.227Z,1.60
2019-04-27T12:00:21.465Z,1.30
2019-04-27T12:02:50.774Z,1.60
2019-04-27T12:05:22.255Z,1.83
2019-04-27T12:07:56.223Z,2.00
2019-04-27T12:10:26.363Z,1.40
2019-04-27T12:12:56.353Z,1.20
2019-04-27T12:15:27.929Z,1.90
2019-04-27T12:18:00.383Z,1.60
2019-04-27T12:20:31.725Z,1.00
2019-04-27T12:23:00.957Z,1.43
2019-04-27T12:25:30.321Z,1.10
2019-04-27T12:28:06.267Z,1.00
2019-04-27T12:30:43.180Z,1.47
2019-04-27T12:33:12.540Z,1.30
2019-04-27T12:35:41.946Z,1.40
2019-04-27T12:38:11.474Z,1.17
2019-04-27T12:40:40.864Z,1.20
2019-04-27T12:43:10.309Z,1.20
2019-04-27T12:45:41.986Z,1.30
2019-04-27T12:48:10.842Z,1.00
2019-04-27T12:50:40.418Z,1.20
2019-04-27T12:53:14.331Z,1.30
2019-04-27T12:56:02.964Z,2.93
2019-04-27T12:58:40.825Z,1.40
2019-04-27T13:01:11.900Z,1.50
2019-04-27T13:03:41.248Z,1.50
2019-04-27T13:06:10.703Z,1.60
2019-04-27T13:08:40.138Z,1.50
2019-04-27T13:11:09.560Z,1.57
2019-04-27T13:13:38.898Z,1.83
2019-04-27T13:16:08.252Z,2.13
2019-04-27T13:18:37.768Z,2.17
2019-04-27T13:21:07.192Z,1.73
2019-04-27T13:23:37.203Z,1.93
2019-04-27T13:26:06.710Z,2.03
2019-04-27T13:28:36.051Z,1.73
2019-04-27T13:31:06.738Z,1.90
2019-04-27T13:33:38.256Z,2.30
2019-04-27T13:36:07.729Z,1.80
2019-04-27T13:38:37.152Z,2.10
2019-04-27T13:41:09.873Z,2.10
2019-04-27T13:43:40.037Z,2.47
2019-04-27T13:46:31.502Z,1.73
2019-04-27T13:49:18.649Z,2.10
2019-04-27T13:51:53.320Z,1.90
2019-04-27T13:54:26.363Z,2.80
2019-04-27T13:56:53.784Z,2.37
2019-04-27T13:59:23.108Z,1.80
2019-04-27T14:01:52.524Z,2.03
2019-04-27T14:04:21.909Z,1.60
2019-04-27T14:06:51.355Z,0.97
2019-04-27T14:09:20.981Z,0.97
2019-04-27T14:11:52.142Z,1.00
2019-04-27T14:14:21.547Z,0.60
2019-04-27T14:16:51.214Z,0.70
2019-04-27T14:19:20.630Z,0.90
2019-04-27T14:21:49.976Z,1.03
2019-04-27T14:24:27.747Z,0.73
2019-04-27T14:26:50.513Z,1.27
2019-04-27T14:29:19.870Z,1.30
2019-04-27T14:31:49.815Z,1.10
2019-04-27T14:34:19.304Z,6.03
2019-04-27T14:36:48.936Z,1.27
2019-04-27T14:39:18.931Z,1.53
2019-04-27T14:41:49.126Z,1.73
2019-04-27T14:44:18.804Z,2.10
2019-04-27T14:46:48.636Z,1.90
2019-04-27T14:49:19.824Z,1.80
2019-04-27T14:51:49.409Z,1.40
2019-04-27T14:54:18.822Z,1.30
2019-04-27T14:56:48.875Z,1.63
2019-04-27T14:59:18.772Z,2.10
2019-04-27T15:01:48.761Z,1.90
2019-04-27T15:04:18.226Z,1.57
2019-04-27T15:06:48.656Z,1.60
2019-04-27T15:09:21.029Z,1.87
2019-04-27T15:11:53.331Z,1.33
2019-04-27T15:14:23.736Z,1.77
2019-04-27T15:16:53.398Z,1.43
2019-04-27T15:19:34.105Z,1.60
2019-04-27T15:22:04.872Z,1.73
2019-04-27T15:24:34.224Z,2.10
2019-04-27T15:27:04.144Z,2.13
2019-04-27T15:29:34.076Z,1.70
2019-04-27T15:32:05.061Z,1.53
2019-04-27T15:34:48.228Z,1.30
2019-04-27T15:37:23.766Z,2.10
2019-04-27T15:40:16.364Z,1.50
2019-04-27T15:42:58.052Z,2.27
2019-04-27T15:45:28.606Z,4.17
2019-04-27T15:47:58.486Z,2.80
2019-04-27T15:50:32.260Z,3.10
2019-04-27T15:53:09.393Z,2.60
2019-04-27T15:55:39.518Z,1.93
2019-04-27T15:58:11.703Z,2.47
2019-04-27T16:00:41.555Z,2.20
2019-04-27T16:03:10.937Z,2.70
2019-04-27T16:05:40.321Z,2.00
2019-04-27T16:08:15.211Z,2.17
2019-04-27T16:10:40.728Z,1.93
2019-04-27T16:13:15.124Z,2.43
2019-04-27T16:15:42.217Z,1.90
2019-04-27T16:18:11.551Z,2.40
2019-04-27T16:20:40.914Z,2.87
2019-04-27T16:23:10.384Z,2.77
2019-04-27T16:25:48.593Z,2.70
2019-04-27T16:28:13.349Z,2.20
2019-04-27T16:30:45.703Z,2.57
2019-04-27T16:33:15.456Z,2.30
2019-04-27T16:35:44.971Z,4.67
2019-04-27T16:38:33.645Z,3.80
2019-04-27T16:41:03.377Z,2.67
2019-04-27T16:43:32.878Z,2.50
2019-04-27T16:46:04.652Z,2.73
2019-04-27T16:48:39.030Z,2.33
2019-04-27T16:51:10.570Z,1.80
2019-04-27T16:53:41.193Z,1.87
2019-04-27T16:56:14.696Z,2.37
2019-04-27T16:58:41.792Z,1.53
2019-04-27T17:01:28.485Z,2.00
2019-04-27T17:03:59.331Z,1.50
2019-04-27T17:06:29.579Z,1.40
2019-04-27T17:09:05.634Z,1.20
2019-04-27T17:11:33.119Z,1.13
2019-04-27T17:14:09.860Z,2.03
2019-04-27T17:16:51.790Z,1.70
2019-04-27T17:19:24.828Z,1.27
2019-04-27T17:21:55.636Z,2.10
2019-04-27T17:24:43.788Z,1.10
2019-04-27T17:27:11.602Z,1.57
2019-04-27T17:29:41.614Z,2.03
2019-04-27T17:32:30.306Z,1.90
2019-04-27T17:35:05.012Z,1.80
2019-04-27T17:37:33.755Z,1.97
2019-04-27T17:40:03.564Z,1.30
2019-04-27T17:42:33.008Z,2.27
2019-04-27T17:45:02.368Z,2.30
2019-04-27T17:47:33.828Z,2.17
2019-04-27T17:50:06.368Z,2.20
2019-04-27T17:52:37.838Z,2.93
2019-04-27T17:55:08.634Z,2.30
2019-04-27T17:57:39.097Z,1.80
2019-04-27T18:00:09.703Z,2.07
2019-04-27T18:02:42.418Z,2.17
2019-04-27T18:05:13.835Z,2.83
2019-04-27T18:07:44.198Z,2.50
2019-04-27T18:10:21.148Z,2.60
2019-04-27T18:12:48.455Z,2.13
2019-04-27T18:15:16.188Z,3.03
2019-04-27T18:17:52.057Z,2.70
2019-04-27T18:20:23.966Z,2.20
2019-04-27T18:23:00.159Z,3.23
2019-04-27T18:25:35.613Z,2.43
2019-04-27T18:28:14.695Z,2.53
2019-04-27T18:31:01.027Z,2.07
2019-04-27T18:33:32.602Z,2.50
2019-04-27T18:36:05.449Z,2.60
2019-04-27T18:38:35.457Z,2.17
2019-04-27T18:41:08.132Z,1.93
2019-04-27T18:43:38.899Z,2.00
2019-04-27T18:46:10.571Z,3.20
2019-04-27T18:49:01.674Z,2.67
2019-04-27T18:51:57.807Z,2.63
2019-04-27T18:54:33.019Z,2.80
2019-04-27T18:57:04.590Z,3.17
2019-04-27T18:59:32.608Z,3.80
2019-04-27T19:02:02.035Z,3.27
2019-04-27T19:04:31.509Z,3.40
2019-04-27T19:07:00.942Z,4.83
2019-04-27T19:09:30.355Z,4.27
2019-04-27T19:11:59.760Z,4.27
2019-04-27T19:14:29.098Z,3.27
2019-04-27T19:16:58.832Z,4.43
2019-04-27T19:19:28.240Z,3.57
2019-04-27T19:21:58.915Z,4.07
2019-04-27T19:24:28.735Z,3.10
2019-04-27T19:27:18.296Z,4.23
2019-04-27T19:29:48.783Z,3.50
2019-04-27T19:32:18.193Z,3.80
2019-04-27T19:34:48.006Z,3.33
2019-04-27T19:37:18.366Z,3.53
2019-04-27T19:39:50.365Z,3.17
2019-04-27T19:42:20.781Z,3.70
2019-04-27T19:44:52.253Z,3.80
2019-04-27T19:47:22.125Z,3.30
2019-04-27T19:49:51.471Z,3.37
2019-04-27T19:52:22.696Z,3.17
2019-04-27T19:54:55.073Z,2.83
2019-04-27T19:57:34.531Z,3.43
2019-04-27T19:59:58.960Z,3.20
2019-04-27T20:02:28.770Z,3.83
2019-04-27T20:05:06.482Z,2.90
2019-04-27T20:07:37.906Z,3.67
2019-04-27T20:10:08.934Z,3.40
2019-04-27T20:12:38.337Z,3.83
2019-04-27T20:15:08.697Z,3.63
2019-04-27T20:17:38.020Z,4.00
2019-04-27T20:20:08.385Z,3.93
2019-04-27T20:22:37.839Z,2.90
2019-04-27T20:25:08.035Z,2.80
2019-04-27T20:27:45.946Z,2.93
2019-04-27T20:30:14.005Z,2.83
2019-04-27T20:32:43.353Z,2.53
2019-04-27T20:35:12.700Z,3.50
2019-04-27T20:37:42.057Z,3.53
2019-04-27T20:40:11.961Z,4.63
2019-04-27T20:42:41.636Z,3.53
2019-04-27T20:45:12.033Z,3.37
2019-04-27T20:47:41.818Z,2.77
2019-04-27T20:50:11.346Z,3.40
2019-04-27T20:52:59.647Z,3.30
2019-04-27T20:55:29.284Z,3.47
2019-04-27T20:58:02.338Z,2.40
2019-04-27T21:00:31.858Z,3.07
2019-04-27T21:03:19.865Z,3.80
2019-04-27T21:06:08.209Z,3.77
2019-04-27T21:08:38.645Z,3.67
2019-04-27T21:11:11.849Z,3.27
2019-04-27T21:13:41.424Z,3.63
2019-04-27T21:16:12.443Z,3.30
2019-04-27T21:18:42.090Z,4.33
2019-04-27T21:21:11.570Z,3.37
2019-04-27T21:23:41.532Z,3.27
2019-04-27T21:26:11.052Z,3.00
2019-04-27T21:28:41.602Z,3.87
2019-04-27T21:31:12.750Z,4.07
2019-04-27T21:33:54.387Z,3.67
2019-04-27T21:36:53.897Z,3.33
2019-04-27T21:40:14.393Z,2.73
2019-04-27T21:42:55.891Z,3.40
2019-04-27T21:45:54.873Z,3.90
2019-04-27T21:48:53.909Z,3.73
2019-04-27T21:52:14.551Z,4.33
2019-04-27T21:54:54.949Z,4.13
2019-04-27T21:57:53.949Z,3.10
2019-04-27T22:01:06.690Z,3.73
2019-04-27T22:03:54.247Z,3.50
2019-04-27T22:06:53.221Z,4.10
2019-04-27T22:09:55.447Z,3.83
2019-04-27T22:12:54.548Z,3.90
2019-04-27T22:15:53.540Z,3.57
2019-04-27T22:18:55.838Z,3.57
2019-04-27T22:21:55.016Z,4.27
2019-04-27T22:25:05.270Z,4.57
2019-04-27T22:27:55.223Z,3.30
2019-04-27T22:30:54.376Z,4.00
2019-04-27T22:33:54.667Z,3.30
2019-04-27T22:36:53.780Z,3.30
2019-04-27T22:46:19.521Z,4.03
2019-04-27T22:48:54.722Z,3.50
2019-04-27T22:51:53.946Z,4.33
2019-04-27T22:54:53.311Z,3.37
2019-04-27T23:01:13.415Z,3.90
2019-04-27T23:03:55.245Z,3.20
2019-04-27T23:06:54.283Z,4.40
2019-04-27T23:09:53.311Z,3.47
2019-04-27T23:12:55.468Z,3.20
2019-04-27T23:15:28.123Z,2.73
2019-04-27T23:18:00.246Z,4.60
2019-04-27T23:20:53.081Z,3.93
2019-04-27T23:23:22.508Z,3.10
2019-04-27T23:25:54.982Z,3.80
2019-04-27T23:28:24.311Z,3.27
2019-04-27T23:31:04.998Z,3.63
2019-04-27T23:33:54.847Z,3.43
2019-04-27T23:36:54.033Z,3.13
2019-04-27T23:39:52.945Z,3.00
2019-04-27T23:42:22.232Z,3.37
2019-04-27T23:44:54.744Z,3.93
2019-04-27T23:47:24.047Z,3.77
2019-04-27T23:49:56.198Z,3.13
2019-04-27T23:53:13.136Z,3.57
2019-04-27T23:55:42.432Z,3.00
2019-04-27T23:58:11.760Z,3.20
